Time;durP1;ratioP1;P1;durP2;ratioP2;P2;SDS_P1;SDS_P2;PMS_P1;PMS_P2;Temp;Humidity;BMP_temperature;BMP_pressure;BME280_temperature;BME280_humidity;BME280_pressure;Samples;Min_cycle;Max_cycle;Signal;HPM_P1;HPM_P2
2022/03/27 00:02:14;;;;;;;7.72;2.92;;;5.80;99.90;;;;;;4964395;29;20054;-59
2022/03/27 00:04:39;;;;;;;6.72;2.83;;;5.80;99.90;;;;;;4963694;28;20047;-59
2022/03/27 00:07:05;;;;;;;7.82;3.13;;;5.90;99.90;;;;;;4963581;29;20051;-59
2022/03/27 00:09:30;;;;;;;7.13;3.10;;;5.90;99.90;;;;;;4963345;28;20057;-60
2022/03/27 00:11:56;;;;;;;8.43;3.35;;;5.80;99.90;;;;;;4964747;29;20511;-59
2022/03/27 00:14:22;;;;;;;9.25;3.58;;;5.80;99.90;;;;;;4963398;29;20184;-56
2022/03/27 00:16:47;;;;;;;9.48;3.70;;;6.00;99.90;;;;;;4964040;29;20167;-55
2022/03/27 00:19:13;;;;;;;9.05;3.45;;;6.00;99.90;;;;;;4962605;29;20039;-56
2022/03/27 00:21:42;;;;;;;9.32;3.58;;;6.00;99.90;;;;;;4963612;29;20070;-56
2022/03/27 00:24:07;;;;;;;8.07;3.70;;;6.10;99.90;;;;;;4964096;28;20118;-57
2022/03/27 00:26:33;;;;;;;7.38;3.22;;;6.20;99.90;;;;;;4945622;29;20043;-57
2022/03/27 00:28:59;;;;;;;8.05;3.95;;;6.20;99.90;;;;;;4964452;29;20043;-57
2022/03/27 00:31:25;;;;;;;10.85;3.63;;;6.30;99.90;;;;;;4962772;29;20172;-57
2022/03/27 00:33:50;;;;;;;9.60;4.07;;;6.30;99.90;;;;;;4962760;29;20054;-56
2022/03/27 00:36:16;;;;;;;12.10;4.05;;;6.40;99.90;;;;;;4963618;29;20051;-59
2022/03/27 00:38:44;;;;;;;9.65;4.38;;;6.40;99.90;;;;;;4962222;29;20067;-59
2022/03/27 00:41:10;;;;;;;12.15;3.78;;;6.30;99.90;;;;;;4964144;28;20130;-59
2022/03/27 00:43:36;;;;;;;9.13;3.67;;;6.40;99.90;;;;;;4962809;28;20047;-59
2022/03/27 00:46:02;;;;;;;9.88;3.95;;;6.40;99.90;;;;;;4963426;28;20095;-59
2022/03/27 00:48:28;;;;;;;10.40;3.67;;;6.40;99.90;;;;;;4962734;28;20083;-59
2022/03/27 00:50:54;;;;;;;8.27;3.95;;;6.20;99.90;;;;;;4964005;29;20558;-59
2022/03/27 00:53:24;;;;;;;9.40;4.22;;;6.10;99.90;;;;;;4963132;29;20048;-59
2022/03/27 00:55:50;;;;;;;8.38;4.03;;;6.10;99.90;;;;;;4962924;28;20050;-59
2022/03/27 00:58:18;;;;;;;8.93;3.45;;;6.20;99.90;;;;;;4963486;29;20047;-59
2022/03/27 01:00:53;;;;;;;9.75;4.07;;;6.10;99.90;;;;;;4962502;28;20129;-59
2022/03/27 01:03:24;;;;;;;10.75;3.75;;;6.10;99.90;;;;;;4963703;28;20052;-59
2022/03/27 01:05:51;;;;;;;7.93;3.67;;;6.10;99.90;;;;;;4943458;29;20059;-59
2022/03/27 01:09:35;;;;;;;11.27;4.15;;;6.10;99.90;;;;;;4944179;29;20053;-59
2022/03/27 01:11:13;;;;;;;11.98;4.05;;;6.00;99.90;;;;;;4944014;29;20048;-59
2022/03/27 01:14:02;;;;;;;8.88;3.72;;;6.10;99.90;;;;;;4943114;29;20051;-59
2022/03/27 01:16:41;;;;;;;8.73;3.50;;;6.10;99.90;;;;;;4943645;29;20416;-59
2022/03/27 01:19:12;;;;;;;8.70;3.45;;;5.90;99.90;;;;;;4942288;29;20063;-59
2022/03/27 01:21:41;;;;;;;8.40;3.42;;;5.90;99.90;;;;;;4943371;29;20043;-59
2022/03/27 01:24:09;;;;;;;8.95;3.42;;;5.80;99.90;;;;;;4950202;29;20094;-59
2022/03/27 01:26:36;;;;;;;6.93;2.95;;;5.90;99.90;;;;;;4962124;29;20039;-59
2022/03/27 01:29:02;;;;;;;7.60;3.30;;;5.60;99.90;;;;;;4963444;28;20524;-59
2022/03/27 01:31:28;;;;;;;7.20;2.97;;;5.70;99.90;;;;;;4961674;28;20066;-59
2022/03/27 01:33:54;;;;;;;8.88;3.25;;;5.60;99.90;;;;;;4961712;29;20043;-59
2022/03/27 01:36:25;;;;;;;7.28;3.20;;;5.70;99.90;;;;;;4962445;28;20179;-59
2022/03/27 01:38:53;;;;;;;19.45;3.70;;;5.60;99.90;;;;;;4962042;29;20046;-59
2022/03/27 01:41:18;;;;;;;11.88;3.88;;;5.40;99.90;;;;;;4962671;29;20047;-59
2022/03/27 01:43:45;;;;;;;10.85;3.80;;;5.40;99.90;;;;;;4960393;29;20047;-59
2022/03/27 01:46:11;;;;;;;27.38;4.22;;;5.30;99.90;;;;;;4962800;28;20058;-58
2022/03/27 01:48:36;;;;;;;31.00;3.92;;;5.30;99.90;;;;;;4961847;29;20051;-59
2022/03/27 01:51:02;;;;;;;47.45;4.82;;;5.30;99.90;;;;;;4962792;28;20043;-59
2022/03/27 01:53:28;;;;;;;12.32;3.53;;;5.20;99.90;;;;;;4962093;29;20114;-58
2022/03/27 01:55:54;;;;;;;14.23;3.08;;;5.20;99.90;;;;;;4960248;29;20058;-58
2022/03/27 01:58:21;;;;;;;11.10;3.63;;;5.10;99.90;;;;;;4961814;28;20043;-59
2022/03/27 02:00:47;;;;;;;8.23;3.78;;;5.10;99.90;;;;;;4961523;29;20043;-59
2022/03/27 02:03:12;;;;;;;9.43;3.50;;;5.20;99.90;;;;;;4962634;29;20105;-58
2022/03/27 02:05:38;;;;;;;10.40;3.55;;;5.20;99.90;;;;;;4961392;29;20050;-59
2022/03/27 02:08:04;;;;;;;21.00;4.18;;;5.20;99.90;;;;;;4962492;29;20075;-59
2022/03/27 02:10:30;;;;;;;11.35;3.72;;;5.10;99.90;;;;;;4961940;28;20067;-59
2022/03/27 02:12:55;;;;;;;54.88;5.85;;;5.00;99.90;;;;;;4961623;28;20051;-59
2022/03/27 02:15:21;;;;;;;14.77;4.30;;;5.10;99.90;;;;;;4962150;29;20067;-62
2022/03/27 02:17:47;;;;;;;17.63;4.20;;;5.00;99.90;;;;;;4960943;29;20039;-56
2022/03/27 02:20:13;;;;;;;31.08;4.43;;;5.00;99.90;;;;;;4962522;28;20043;-56
2022/03/27 02:22:38;;;;;;;16.83;3.80;;;5.10;99.90;;;;;;4959834;29;20043;-56
2022/03/27 02:25:05;;;;;;;11.77;3.38;;;5.10;99.90;;;;;;4960907;29;20078;-56
2022/03/27 02:27:31;;;;;;;18.30;4.25;;;4.90;99.90;;;;;;4961315;28;20047;-56
2022/03/27 02:29:57;;;;;;;24.02;4.22;;;5.00;99.90;;;;;;4961561;28;20050;-57
2022/03/27 02:32:22;;;;;;;23.23;4.20;;;4.90;99.90;;;;;;4961541;29;20051;-57
2022/03/27 02:34:48;;;;;;;21.70;3.53;;;4.90;99.90;;;;;;4960634;29;20047;-57
2022/03/27 02:37:14;;;;;;;12.93;5.57;;;4.90;99.90;;;;;;4960746;29;20047;-56
2022/03/27 02:39:46;;;;;;;10.35;3.58;;;4.90;99.90;;;;;;4959565;29;20085;-56
2022/03/27 02:42:12;;;;;;;10.40;3.58;;;4.90;99.90;;;;;;4944556;29;20051;-56
2022/03/27 02:44:37;;;;;;;7.85;2.95;;;5.00;99.90;;;;;;4959668;29;20050;-57
2022/03/27 02:47:04;;;;;;;11.23;2.78;;;4.80;99.90;;;;;;4960973;28;20626;-56
2022/03/27 02:49:30;;;;;;;15.50;2.95;;;4.80;99.90;;;;;;4960024;29;20063;-56
2022/03/27 02:51:56;;;;;;;9.90;3.08;;;4.80;99.90;;;;;;4960583;28;20039;-57
2022/03/27 02:54:21;;;;;;;23.27;3.47;;;4.80;99.90;;;;;;4961838;28;20111;-56
2022/03/27 02:56:47;;;;;;;10.52;3.03;;;4.70;99.90;;;;;;4960268;29;20074;-57
2022/03/27 02:59:13;;;;;;;8.40;3.28;;;4.70;99.90;;;;;;4961675;28;20094;-57
2022/03/27 03:01:39;;;;;;;7.85;3.20;;;4.70;99.90;;;;;;4960439;29;20082;-56
2022/03/27 03:04:04;;;;;;;9.90;3.78;;;4.60;99.90;;;;;;4961026;28;20050;-57
2022/03/27 03:06:32;;;;;;;12.95;3.30;;;4.60;99.90;;;;;;4961243;29;20063;-56
2022/03/27 03:08:58;;;;;;;9.20;2.88;;;4.70;99.90;;;;;;4960230;28;20115;-54
2022/03/27 03:11:23;;;;;;;6.57;3.03;;;4.80;99.90;;;;;;4961313;29;20102;-56
2022/03/27 03:13:51;;;;;;;8.30;3.08;;;4.70;99.90;;;;;;4960222;28;20365;-57
2022/03/27 03:16:17;;;;;;;11.18;3.35;;;4.70;99.90;;;;;;4961345;28;20055;-56
2022/03/27 03:18:44;;;;;;;8.57;3.03;;;4.70;99.90;;;;;;4960385;29;20048;-56
2022/03/27 03:21:09;;;;;;;8.68;2.92;;;4.70;99.90;;;;;;4961042;28;20047;-57
2022/03/27 03:23:36;;;;;;;7.68;3.20;;;4.60;99.90;;;;;;4959462;29;20432;-57
2022/03/27 03:26:06;;;;;;;12.30;3.25;;;4.60;99.90;;;;;;4960367;28;20046;-57
2022/03/27 03:28:31;;;;;;;15.18;3.95;;;4.80;99.90;;;;;;4961324;29;20086;-57
2022/03/27 03:30:57;;;;;;;9.45;3.42;;;4.90;99.90;;;;;;4959967;28;20047;-56
2022/03/27 03:33:23;;;;;;;18.33;4.05;;;4.80;99.90;;;;;;4961551;28;20055;-57
2022/03/27 03:35:49;;;;;;;13.68;4.18;;;4.70;99.90;;;;;;4960046;29;20043;-57
2022/03/27 03:38:14;;;;;;;9.50;3.42;;;4.60;99.90;;;;;;4960815;29;20047;-57
2022/03/27 03:40:41;;;;;;;11.73;3.95;;;4.60;99.90;;;;;;4960751;29;20098;-56
2022/03/27 03:43:07;;;;;;;11.35;3.97;;;4.60;99.90;;;;;;4960218;28;20040;-56
2022/03/27 03:45:33;;;;;;;22.65;4.32;;;4.70;99.90;;;;;;4959593;29;20043;-57
2022/03/27 03:47:59;;;;;;;19.00;4.05;;;4.50;99.90;;;;;;4959913;28;20129;-59
2022/03/27 03:50:26;;;;;;;14.23;3.83;;;4.40;99.90;;;;;;4961447;28;20047;-57
2022/03/27 03:52:52;;;;;;;11.90;3.90;;;4.50;99.90;;;;;;4960043;28;20043;-56
2022/03/27 03:55:18;;;;;;;19.98;4.57;;;4.40;99.90;;;;;;4959414;28;20051;-56
2022/03/27 03:57:44;;;;;;;14.75;3.95;;;4.40;99.90;;;;;;4960598;28;20145;-56
2022/03/27 04:00:10;;;;;;;27.02;4.88;;;4.50;99.90;;;;;;4960241;29;20090;-56
2022/03/27 04:02:36;;;;;;;37.30;3.95;;;4.50;99.90;;;;;;4961055;28;20103;-57
2022/03/27 04:05:02;;;;;;;18.90;4.55;;;4.40;99.90;;;;;;4959761;29;20128;-57
2022/03/27 04:07:27;;;;;;;26.23;4.30;;;4.50;99.90;;;;;;4961141;29;20071;-57
2022/03/27 04:09:53;;;;;;;55.90;5.50;;;4.40;99.90;;;;;;4959685;29;20101;-56
2022/03/27 04:12:19;;;;;;;18.85;3.40;;;4.30;99.90;;;;;;4960706;29;20088;-57
2022/03/27 04:14:44;;;;;;;24.17;4.15;;;4.50;99.90;;;;;;4960113;28;20043;-56
2022/03/27 04:17:11;;;;;;;53.63;4.97;;;4.40;99.90;;;;;;4958855;29;20055;-57
2022/03/27 04:19:37;;;;;;;17.08;3.70;;;4.20;99.90;;;;;;4943645;29;20055;-57
2022/03/27 04:22:04;;;;;;;12.45;3.80;;;4.40;99.90;;;;;;4961030;28;20043;-57
2022/03/27 04:24:29;;;;;;;35.22;3.60;;;4.40;99.90;;;;;;4963265;29;20054;-57
2022/03/27 04:26:55;;;;;;;32.28;3.60;;;4.40;99.90;;;;;;4963030;29;20094;-56
2022/03/27 04:29:21;;;;;;;11.75;3.08;;;4.30;99.90;;;;;;4963070;29;20541;-59
2022/03/27 04:31:47;;;;;;;9.00;2.67;;;4.40;99.90;;;;;;4963411;28;20059;-59
2022/03/27 04:34:13;;;;;;;34.88;3.90;;;4.30;99.90;;;;;;4963155;28;20058;-58
2022/03/27 04:36:40;;;;;;;45.90;4.75;;;4.20;99.90;;;;;;4962759;28;20444;-59
2022/03/27 04:39:06;;;;;;;38.92;4.28;;;4.00;99.90;;;;;;4961468;29;20087;-56
2022/03/27 04:41:33;;;;;;;31.80;4.07;;;4.00;99.90;;;;;;4964113;29;20091;-57
2022/03/27 04:43:59;;;;;;;59.00;4.85;;;4.10;99.90;;;;;;4962966;28;20043;-57
2022/03/27 04:46:25;;;;;;;25.90;3.47;;;4.10;99.90;;;;;;4963969;29;20427;-57
2022/03/27 04:48:51;;;;;;;24.13;3.15;;;4.10;99.90;;;;;;4963183;28;20035;-56
2022/03/27 04:51:17;;;;;;;15.63;2.72;;;4.10;99.90;;;;;;4963351;28;20989;-57
2022/03/27 04:53:42;;;;;;;18.92;3.10;;;4.20;99.90;;;;;;4963506;29;20091;-57
2022/03/27 04:56:08;;;;;;;15.05;2.92;;;4.20;99.90;;;;;;4962632;28;20051;-56
2022/03/27 04:58:35;;;;;;;13.70;2.90;;;4.20;99.90;;;;;;4964102;29;20078;-57
2022/03/27 05:01:00;;;;;;;10.40;2.60;;;4.20;99.90;;;;;;4962699;28;20093;-57
2022/03/27 05:03:26;;;;;;;7.55;2.03;;;4.10;99.90;;;;;;4963608;28;20079;-57
2022/03/27 05:05:52;;;;;;;8.52;2.00;;;4.10;99.90;;;;;;4962696;29;20437;-56
2022/03/27 05:08:18;;;;;;;6.03;2.20;;;4.20;99.90;;;;;;4963248;29;20444;-57
2022/03/27 05:10:43;;;;;;;6.75;2.20;;;4.30;99.90;;;;;;4963277;28;20046;-56
2022/03/27 05:13:09;;;;;;;6.85;2.00;;;4.30;99.90;;;;;;4962334;28;20054;-57
2022/03/27 05:15:35;;;;;;;6.40;2.13;;;4.10;99.90;;;;;;4961939;29;20047;-57
2022/03/27 05:18:01;;;;;;;6.63;1.92;;;4.20;99.90;;;;;;4945108;29;20059;-56
2022/03/27 05:20:29;;;;;;;5.75;1.85;;;4.20;99.90;;;;;;4963628;29;20175;-57
2022/03/27 05:22:56;;;;;;;6.00;2.15;;;4.10;99.90;;;;;;4962436;28;20047;-56
2022/03/27 05:25:23;;;;;;;13.20;2.35;;;4.10;99.90;;;;;;4961508;29;20047;-57
2022/03/27 05:27:50;;;;;;;8.73;2.67;;;4.30;99.90;;;;;;4945810;29;20077;-57
2022/03/27 05:30:18;;;;;;;10.70;2.55;;;4.20;99.90;;;;;;4962180;28;20054;-57
2022/03/27 05:32:45;;;;;;;8.73;2.80;;;4.30;99.90;;;;;;4963210;28;20047;-57
2022/03/27 05:35:11;;;;;;;18.02;3.40;;;4.20;99.90;;;;;;4961727;28;20063;-57
2022/03/27 05:37:44;;;;;;;15.25;3.55;;;4.30;99.90;;;;;;4963186;29;20219;-57
2022/03/27 05:40:12;;;;;;;10.88;3.08;;;4.40;99.90;;;;;;4962198;28;20124;-57
2022/03/27 05:42:38;;;;;;;14.38;3.40;;;4.40;99.90;;;;;;4962399;28;20053;-56
2022/03/27 05:45:06;;;;;;;14.88;2.83;;;4.40;99.90;;;;;;4962688;28;20043;-57
2022/03/27 05:47:31;;;;;;;20.95;4.40;;;4.40;99.90;;;;;;4961486;28;20054;-57
2022/03/27 05:49:58;;;;;;;27.60;6.13;;;4.50;99.90;;;;;;4961525;29;20051;-57
2022/03/27 05:52:24;;;;;;;29.90;5.15;;;4.50;99.90;;;;;;4960082;29;20058;-57
2022/03/27 05:54:51;;;;;;;22.90;4.30;;;4.70;99.90;;;;;;4962884;28;20435;-59
2022/03/27 05:57:18;;;;;;;31.88;7.40;;;4.80;99.90;;;;;;4960269;29;20513;-57
2022/03/27 05:59:45;;;;;;;31.15;5.53;;;4.70;99.90;;;;;;4962265;28;20050;-57
2022/03/27 06:02:12;;;;;;;34.75;9.00;;;4.80;99.90;;;;;;4962420;28;20039;-56
2022/03/27 06:04:38;;;;;;;28.08;7.35;;;4.90;99.90;;;;;;4960070;29;20058;-57
2022/03/27 06:07:04;;;;;;;26.70;8.10;;;5.00;99.90;;;;;;4962585;28;20043;-58
2022/03/27 06:09:30;;;;;;;32.47;6.68;;;4.90;99.90;;;;;;4961198;28;20055;-57
2022/03/27 06:11:56;;;;;;;32.70;6.88;;;5.00;99.90;;;;;;4962649;29;20503;-57
2022/03/27 06:14:22;;;;;;;27.08;6.28;;;5.00;99.90;;;;;;4959929;28;20047;-57
2022/03/27 06:16:48;;;;;;;36.30;7.15;;;5.10;99.90;;;;;;4961887;28;20079;-57
2022/03/27 06:19:14;;;;;;;38.35;6.47;;;5.30;99.90;;;;;;4961974;29;20039;-57
2022/03/27 06:21:39;;;;;;;28.42;7.28;;;5.20;99.90;;;;;;4960099;29;20047;-57
2022/03/27 06:24:05;;;;;;;34.42;8.27;;;5.40;99.90;;;;;;4962225;28;20492;-57
2022/03/27 06:26:31;;;;;;;37.00;8.30;;;5.40;99.90;;;;;;4960931;28;20047;-57
2022/03/27 06:28:57;;;;;;;35.45;7.90;;;5.60;99.90;;;;;;4962250;29;20050;-56
2022/03/27 06:31:22;;;;;;;33.70;8.13;;;5.50;99.90;;;;;;4960784;28;20055;-57
2022/03/27 06:33:48;;;;;;;32.30;7.53;;;5.50;99.90;;;;;;4961809;28;20416;-57
2022/03/27 06:36:14;;;;;;;33.22;7.53;;;5.50;99.90;;;;;;4961502;28;20158;-57
2022/03/27 06:38:40;;;;;;;36.72;9.98;;;5.80;99.90;;;;;;4956185;29;20049;-57
2022/03/27 06:41:06;;;;;;;33.47;8.55;;;5.60;99.90;;;;;;4957948;29;20055;-57
2022/03/27 06:43:33;;;;;;;35.65;6.88;;;5.70;99.90;;;;;;4957030;28;20043;-57
2022/03/27 06:45:59;;;;;;;27.58;5.85;;;5.80;99.90;;;;;;4957568;28;20051;-57
2022/03/27 06:48:25;;;;;;;37.97;7.45;;;5.80;99.90;;;;;;4956916;28;20057;-57
2022/03/27 06:50:50;;;;;;;34.17;6.30;;;5.90;99.90;;;;;;4956122;29;20043;-57
2022/03/27 06:53:20;;;;;;;28.30;6.68;;;5.90;99.90;;;;;;4955486;29;20039;-57
2022/03/27 06:55:47;;;;;;;34.60;8.00;;;6.10;99.90;;;;;;4956778;29;20094;-57
2022/03/27 06:58:13;;;;;;;30.58;8.48;;;6.00;99.90;;;;;;4957811;28;20103;-57
2022/03/27 07:03:24;;;;;;;28.33;6.45;;;6.10;99.90;;;;;;4957906;29;20946;-57
2022/03/27 07:05:50;;;;;;;30.70;6.10;;;6.30;99.90;;;;;;4956874;28;20122;-57
2022/03/27 07:08:17;;;;;;;26.48;5.05;;;6.30;99.90;;;;;;4957647;28;20095;-57
2022/03/27 07:10:44;;;;;;;24.13;5.53;;;6.30;99.90;;;;;;4957427;28;20039;-58
2022/03/27 07:13:12;;;;;;;26.88;5.05;;;6.40;99.90;;;;;;4956295;28;20054;-58
2022/03/27 07:15:38;;;;;;;29.48;5.88;;;6.40;99.90;;;;;;4957464;28;20046;-58
2022/03/27 07:18:05;;;;;;;25.00;5.40;;;6.50;99.90;;;;;;4955387;29;20055;-58
2022/03/27 07:20:33;;;;;;;29.80;5.85;;;6.70;99.90;;;;;;4957718;28;20058;-58
2022/03/27 07:23:01;;;;;;;30.25;7.47;;;6.70;99.90;;;;;;4956754;28;20122;-57
2022/03/27 07:25:29;;;;;;;35.03;6.07;;;6.80;99.90;;;;;;4956512;28;20066;-58
2022/03/27 07:27:55;;;;;;;25.17;5.35;;;6.80;99.90;;;;;;4957523;28;20078;-58
2022/03/27 07:30:22;;;;;;;28.88;6.07;;;6.90;99.90;;;;;;4955181;29;20063;-58
2022/03/27 07:32:48;;;;;;;25.92;6.20;;;7.10;99.90;;;;;;4957596;28;20139;-58
2022/03/27 07:35:15;;;;;;;33.38;7.45;;;7.10;99.90;;;;;;4956110;28;20051;-58
2022/03/27 07:37:42;;;;;;;30.60;5.68;;;7.20;99.90;;;;;;4957248;28;20058;-57
2022/03/27 07:40:10;;;;;;;29.65;5.93;;;7.20;99.90;;;;;;4956457;28;20071;-59
2022/03/27 07:42:37;;;;;;;32.03;6.50;;;7.20;99.90;;;;;;4955409;29;20054;-58
2022/03/27 07:45:03;;;;;;;32.13;7.07;;;7.30;99.90;;;;;;4957364;28;20120;-58
2022/03/27 07:47:30;;;;;;;36.33;7.10;;;7.50;99.90;;;;;;4955944;28;20082;-58
2022/03/27 07:49:55;;;;;;;30.73;6.13;;;7.70;99.90;;;;;;4956283;29;20048;-58
2022/03/27 07:52:22;;;;;;;40.67;7.32;;;7.80;99.90;;;;;;4955876;29;20075;-58
2022/03/27 07:54:49;;;;;;;36.83;7.28;;;7.70;99.90;;;;;;4957436;29;20127;-57
2022/03/27 07:57:15;;;;;;;33.97;7.70;;;7.90;99.90;;;;;;4951814;28;20051;-58
2022/03/27 07:59:40;;;;;;;37.45;7.43;;;7.90;99.90;;;;;;4950799;29;20121;-58
2022/03/27 08:02:06;;;;;;;37.47;9.57;;;8.10;99.90;;;;;;4948680;29;20046;-59
2022/03/27 08:04:34;;;;;;;38.33;8.82;;;8.10;99.90;;;;;;4949506;29;20043;-58
2022/03/27 08:07:00;;;;;;;35.85;7.60;;;8.20;99.90;;;;;;4948273;29;20043;-58
2022/03/27 08:09:26;;;;;;;35.38;6.68;;;8.30;99.90;;;;;;4941141;29;20051;-59
2022/03/27 08:11:52;;;;;;;36.42;6.68;;;8.30;99.90;;;;;;4940618;29;20055;-59
2022/03/27 08:14:18;;;;;;;35.33;7.35;;;8.30;99.90;;;;;;4939551;29;20431;-58
2022/03/27 08:16:44;;;;;;;37.60;7.07;;;8.30;99.90;;;;;;4943026;29;20073;-58
2022/03/27 08:19:09;;;;;;;38.20;7.07;;;8.40;99.90;;;;;;4944948;29;20106;-57
2022/03/27 08:21:35;;;;;;;32.05;6.95;;;8.30;99.90;;;;;;4946831;29;20048;-58
2022/03/27 08:24:01;;;;;;;37.45;8.07;;;8.40;99.90;;;;;;4955413;29;20054;-58
2022/03/27 08:29:11;;;;;;;42.28;7.40;;;8.40;99.90;;;;;;4945163;29;20165;-59
2022/03/27 08:31:37;;;;;;;36.60;7.10;;;8.60;99.90;;;;;;4944065;29;20123;-58
2022/03/27 08:34:03;;;;;;;31.38;7.35;;;8.60;99.90;;;;;;4944594;29;20071;-58
2022/03/27 08:36:29;;;;;;;33.53;6.95;;;8.80;99.90;;;;;;4944652;29;20055;-58
2022/03/27 08:38:55;;;;;;;33.58;6.60;;;8.70;99.90;;;;;;4943811;29;20039;-58
2022/03/27 08:41:22;;;;;;;29.30;6.15;;;8.70;99.90;;;;;;4944822;29;20036;-59
2022/03/27 08:43:58;;;;;;;34.90;7.82;;;8.80;99.90;;;;;;4943244;29;20039;-58
2022/03/27 08:46:28;;;;;;;41.03;9.50;;;8.80;99.90;;;;;;4944748;29;20043;-58
2022/03/27 08:48:59;;;;;;;35.78;8.93;;;8.90;99.90;;;;;;4944197;29;20051;-58
2022/03/27 08:51:34;;;;;;;29.85;6.82;;;8.90;99.90;;;;;;4943986;29;20061;-58
2022/03/27 08:54:10;;;;;;;33.28;8.13;;;9.10;99.90;;;;;;4944661;29;20094;-58
2022/03/27 08:56:36;;;;;;;31.77;7.15;;;9.10;99.90;;;;;;4941824;29;20578;-57
2022/03/27 08:59:11;;;;;;;34.10;7.43;;;9.10;99.90;;;;;;4944820;29;20071;-58
2022/03/27 09:01:38;;;;;;;32.25;8.07;;;9.10;99.90;;;;;;4943534;29;20048;-58
2022/03/27 09:04:04;;;;;;;32.05;6.65;;;9.00;99.90;;;;;;4949109;29;20039;-57
2022/03/27 09:06:30;;;;;;;39.58;7.60;;;9.30;99.90;;;;;;4963235;28;20524;-57
2022/03/27 09:08:56;;;;;;;47.55;8.65;;;9.20;99.90;;;;;;4961932;28;20062;-56
2022/03/27 09:11:23;;;;;;;35.45;9.00;;;9.20;99.90;;;;;;4959961;29;20051;-57
2022/03/27 09:13:52;;;;;;;31.33;7.60;;;9.20;99.90;;;;;;4949055;29;20043;-57
2022/03/27 09:16:19;;;;;;;32.78;7.38;;;9.20;99.90;;;;;;4974864;28;20043;-57
2022/03/27 09:18:55;;;;;;;30.23;6.05;;;9.40;99.90;;;;;;4958405;29;20047;-57
2022/03/27 09:21:26;;;;;;;31.15;6.70;;;9.40;99.90;;;;;;4962585;28;20058;-56
2022/03/27 09:24:00;;;;;;;33.80;7.13;;;9.40;99.90;;;;;;4957213;29;20052;-57
2022/03/27 09:26:27;;;;;;;38.35;7.93;;;9.40;99.90;;;;;;4942660;29;20132;-58
2022/03/27 09:29:05;;;;;;;31.35;6.68;;;9.40;99.90;;;;;;4944178;29;20031;-58
2022/03/27 09:31:30;;;;;;;28.60;7.15;;;9.50;99.90;;;;;;4942908;29;20062;-57
2022/03/27 09:34:00;;;;;;;36.17;8.13;;;9.50;99.90;;;;;;4943698;29;20142;-57
2022/03/27 09:36:27;;;;;;;33.15;6.57;;;9.60;99.90;;;;;;4943343;29;20044;-58
2022/03/27 09:39:19;;;;;;;34.25;7.70;;;9.60;99.90;;;;;;4941516;29;20378;-58
2022/03/27 09:42:01;;;;;;;32.55;6.35;;;9.60;99.90;;;;;;4927939;29;20066;-57
2022/03/27 09:44:36;;;;;;;31.55;7.30;;;9.70;99.90;;;;;;4943097;29;20040;-57
2022/03/27 09:47:07;;;;;;;35.72;7.53;;;9.70;99.90;;;;;;4942627;29;20062;-57
2022/03/27 09:49:34;;;;;;;27.65;6.80;;;9.80;99.90;;;;;;4943737;29;20048;-58
2022/03/27 09:52:08;;;;;;;31.95;7.43;;;9.70;99.90;;;;;;4944025;29;20421;-57
2022/03/27 09:54:56;;;;;;;34.38;7.68;;;9.80;99.90;;;;;;4962448;28;20078;-58
2022/03/27 09:57:30;;;;;;;29.52;6.20;;;9.80;99.90;;;;;;4961884;28;20364;-57
2022/03/27 09:59:58;;;;;;;31.00;6.22;;;9.90;99.90;;;;;;4961803;28;20419;-58
2022/03/27 10:02:29;;;;;;;24.48;5.55;;;10.00;99.90;;;;;;4961128;29;20458;-57
2022/03/27 10:05:04;;;;;;;31.70;6.07;;;10.00;99.90;;;;;;4961133;28;20039;-57
2022/03/27 10:07:34;;;;;;;26.98;5.97;;;10.10;99.90;;;;;;4962479;28;20110;-57
2022/03/27 10:09:59;;;;;;;31.02;7.32;;;10.20;99.90;;;;;;4960915;29;20050;-57
2022/03/27 10:12:30;;;;;;;29.90;6.97;;;10.20;99.90;;;;;;4960226;29;20043;-57
2022/03/27 10:15:03;;;;;;;25.08;5.68;;;10.10;99.90;;;;;;4961913;28;20055;-57
2022/03/27 10:17:31;;;;;;;28.50;7.15;;;10.20;99.90;;;;;;4960699;28;20043;-57
2022/03/27 10:20:02;;;;;;;36.58;6.93;;;10.30;99.90;;;;;;4961544;28;20043;-57
2022/03/27 10:22:29;;;;;;;31.03;6.73;;;10.30;99.90;;;;;;4960631;28;20051;-57
2022/03/27 10:25:00;;;;;;;26.40;6.32;;;10.40;99.90;;;;;;4960221;29;20054;-57
2022/03/27 10:27:27;;;;;;;34.08;6.97;;;10.40;99.90;;;;;;4960949;28;20069;-57
2022/03/27 10:29:54;;;;;;;31.92;7.03;;;10.50;99.90;;;;;;4961077;28;20078;-58
2022/03/27 10:32:20;;;;;;;32.03;5.90;;;10.50;99.90;;;;;;4961737;28;20514;-57
2022/03/27 10:35:03;;;;;;;22.77;5.05;;;10.50;99.90;;;;;;4959152;29;20403;-57
2022/03/27 10:37:53;;;;;;;28.85;6.70;;;10.60;99.90;;;;;;4961822;29;20047;-57
2022/03/27 10:40:34;;;;;;;28.42;5.60;;;10.60;99.90;;;;;;4925179;28;20608;-57
2022/03/27 10:43:11;;;;;;;29.52;5.40;;;10.70;99.90;;;;;;4960508;28;20043;-57
2022/03/27 10:45:37;;;;;;;18.75;3.95;;;10.70;99.90;;;;;;4961356;28;20079;-57
2022/03/27 10:48:11;;;;;;;21.98;4.20;;;10.70;99.90;;;;;;4960258;29;20058;-57
2022/03/27 10:50:54;;;;;;;21.55;5.10;;;10.70;99.90;;;;;;4961397;29;20039;-57
2022/03/27 10:53:22;;;;;;;16.85;3.88;;;10.80;99.90;;;;;;4960893;28;20061;-56
2022/03/27 10:55:52;;;;;;;23.00;4.55;;;10.90;99.90;;;;;;4959033;29;20051;-57
2022/03/27 10:58:28;;;;;;;25.88;5.10;;;11.00;99.90;;;;;;4960031;29;20043;-57
2022/03/27 11:00:55;;;;;;;22.10;4.68;;;11.10;99.90;;;;;;4960004;28;20047;-57
2022/03/27 11:03:47;;;;;;;24.10;5.40;;;11.20;99.90;;;;;;4961630;28;20066;-58
2022/03/27 11:06:28;;;;;;;21.70;4.25;;;11.20;99.90;;;;;;4941722;29;20054;-57
2022/03/27 11:08:59;;;;;;;20.33;3.25;;;11.40;99.90;;;;;;4945962;29;20058;-57
2022/03/27 11:11:37;;;;;;;20.48;3.67;;;11.50;99.90;;;;;;4948954;29;20075;-58
2022/03/27 11:14:09;;;;;;;20.67;4.05;;;11.50;99.90;;;;;;4954867;29;20080;-58
2022/03/27 11:17:06;;;;;;;22.92;4.05;;;11.60;99.90;;;;;;4943469;29;20058;-57
2022/03/27 11:19:43;;;;;;;23.70;3.90;;;11.70;99.90;;;;;;4961168;28;20048;-57
2022/03/27 11:22:51;;;;;;;18.50;3.95;;;11.80;99.90;;;;;;4960071;29;20047;-58
2022/03/27 11:25:36;;;;;;;19.38;4.88;;;11.90;99.90;;;;;;4943752;29;20059;-57
2022/03/27 11:28:15;;;;;;;22.27;3.50;;;11.90;99.90;;;;;;4941741;29;20040;-58
2022/03/27 11:30:50;;;;;;;18.23;3.75;;;11.90;99.90;;;;;;4941056;29;20044;-59
2022/03/27 11:33:23;;;;;;;16.98;4.05;;;12.10;99.90;;;;;;4928846;29;20071;-57
2022/03/27 11:36:09;;;;;;;19.08;3.85;;;12.20;99.90;;;;;;4944785;29;20048;-57
2022/03/27 11:38:53;;;;;;;24.75;4.15;;;12.10;99.90;;;;;;4944987;29;20492;-58
2022/03/27 11:41:45;;;;;;;22.02;4.35;;;12.30;99.90;;;;;;4946038;29;20090;-57
2022/03/27 11:47:20;;;;;;;;;;;12.20;99.90;;;;;;4943353;29;20063;-57
2022/03/27 11:49:48;;;;;;;19.25;4.35;;;12.30;99.90;;;;;;4960566;29;20264;-57
2022/03/27 11:52:16;;;;;;;26.08;5.13;;;12.50;99.90;;;;;;4943062;29;20052;-57
2022/03/27 11:54:42;;;;;;;15.63;3.30;;;12.50;99.90;;;;;;4945567;29;20577;-57
2022/03/27 11:57:09;;;;;;;21.90;4.97;;;12.50;99.90;;;;;;4943431;29;20110;-57
2022/03/27 11:59:49;;;;;;;18.50;3.80;;;12.60;99.90;;;;;;4943614;29;20131;-56
2022/03/27 12:02:19;;;;;;;18.45;3.63;;;12.60;99.90;;;;;;4945491;29;20049;-58
2022/03/27 12:04:52;;;;;;;22.15;4.13;;;12.50;99.90;;;;;;4955042;29;20047;-58
2022/03/27 12:07:18;;;;;;;17.27;4.03;;;12.70;99.90;;;;;;4964652;28;20054;-58
2022/03/27 12:09:44;;;;;;;19.50;4.45;;;12.70;99.90;;;;;;4962131;29;20086;-57
2022/03/27 12:12:14;;;;;;;17.25;4.25;;;12.70;99.90;;;;;;4957374;28;20094;-56
2022/03/27 12:15:02;;;;;;;20.40;4.28;;;12.70;99.90;;;;;;4955160;29;20103;-57
2022/03/27 12:17:31;;;;;;;16.92;3.60;;;12.60;99.90;;;;;;4949385;29;20052;-57
2022/03/27 12:20:05;;;;;;;18.08;4.63;;;12.70;99.90;;;;;;4964386;29;20051;-58
2022/03/27 12:22:40;;;;;;;20.08;5.03;;;12.70;99.90;;;;;;4963016;29;20048;-58
2022/03/27 12:25:17;;;;;;;24.10;5.03;;;12.70;99.90;;;;;;4949488;28;20047;-57
2022/03/27 12:30:32;;;;;;;13.90;3.78;;;12.80;99.90;;;;;;4942009;29;20044;-57
2022/03/27 12:33:00;;;;;;;22.13;4.13;;;12.90;99.90;;;;;;4942818;29;20067;-58
2022/03/27 12:35:27;;;;;;;23.65;4.90;;;12.70;99.90;;;;;;4942968;29;20067;-57
2022/03/27 12:37:54;;;;;;;24.05;4.97;;;12.70;99.90;;;;;;4944090;29;20044;-58
2022/03/27 12:40:20;;;;;;;23.52;4.88;;;12.70;99.90;;;;;;4942861;29;20083;-56
2022/03/27 12:42:51;;;;;;;19.92;4.50;;;12.70;99.90;;;;;;4941797;29;20345;-57
2022/03/27 12:45:40;;;;;;;24.70;4.28;;;12.80;99.90;;;;;;4944117;29;20047;-57
2022/03/27 12:48:11;;;;;;;19.23;4.38;;;12.60;99.90;;;;;;4942829;29;20059;-57
2022/03/27 12:50:39;;;;;;;18.30;3.65;;;12.70;99.90;;;;;;4944002;29;20079;-56
2022/03/27 12:53:13;;;;;;;20.52;4.07;;;12.60;99.90;;;;;;4943312;29;20119;-56
2022/03/27 12:55:44;;;;;;;21.00;4.88;;;12.70;99.90;;;;;;4942670;29;20122;-57
2022/03/27 12:58:14;;;;;;;20.30;4.50;;;12.80;99.90;;;;;;4942980;29;20080;-57
2022/03/27 13:00:40;;;;;;;18.45;4.75;;;12.90;99.90;;;;;;4941528;29;20511;-57
2022/03/27 13:03:12;;;;;;;23.90;5.45;;;12.90;99.90;;;;;;4943194;29;20050;-57
2022/03/27 13:05:39;;;;;;;17.30;3.97;;;12.90;99.90;;;;;;4959686;28;20046;-57